Time;durP1;ratioP1;P1;durP2;ratioP2;P2;SDS_P1;SDS_P2;PMS_P1;PMS_P2;Temp;Humidity;BMP_temperature;BMP_pressure;BME280_temperature;BME280_humidity;BME280_pressure;Samples;Min_cycle;Max_cycle;Signal;HPM_P1;HPM_P2
2023/09/26 00:02:15;;;;;;;12.63;10.83;;;9.30;99.90;;;;;;5075558;28;20201;-67
2023/09/26 00:04:41;;;;;;;12.77;11.27;;;9.30;99.90;;;;;;5075495;28;20197;-67
2023/09/26 00:07:08;;;;;;;12.67;11.30;;;9.30;99.90;;;;;;5075424;28;20192;-67
2023/09/26 00:09:35;;;;;;;13.90;12.30;;;9.20;99.90;;;;;;5075374;28;20193;-67
2023/09/26 00:12:03;;;;;;;12.00;10.80;;;9.30;99.90;;;;;;5075246;28;20197;-68
2023/09/26 00:14:30;;;;;;;12.87;11.67;;;9.30;99.90;;;;;;5075114;28;20288;-67
2023/09/26 00:16:57;;;;;;;12.83;11.53;;;9.40;99.90;;;;;;5075028;28;20708;-67
2023/09/26 00:19:23;;;;;;;13.13;11.63;;;9.50;99.90;;;;;;5075272;28;20428;-67
2023/09/26 00:21:50;;;;;;;13.33;12.03;;;9.40;99.90;;;;;;5074989;28;20640;-68
2023/09/26 00:24:17;;;;;;;13.13;11.83;;;9.30;99.90;;;;;;5075090;28;20247;-68
2023/09/26 00:26:43;;;;;;;12.80;11.30;;;9.10;99.90;;;;;;5074847;28;20204;-68
2023/09/26 00:29:11;;;;;;;14.33;11.97;;;9.10;99.90;;;;;;5075161;28;20193;-68
2023/09/26 00:31:38;;;;;;;13.30;11.63;;;9.20;99.90;;;;;;5075083;28;20194;-68
2023/09/26 00:34:05;;;;;;;12.53;11.27;;;9.10;99.90;;;;;;5074777;28;20731;-68
2023/09/26 00:36:32;;;;;;;12.50;11.23;;;8.90;99.90;;;;;;5074542;28;20765;-68
2023/09/26 00:39:00;;;;;;;12.43;11.23;;;8.80;99.90;;;;;;5074807;28;20193;-68
2023/09/26 00:41:26;;;;;;;12.27;11.07;;;8.70;99.90;;;;;;5074601;28;20254;-68
2023/09/26 00:43:53;;;;;;;11.63;10.50;;;8.70;99.90;;;;;;5074830;28;20284;-68
2023/09/26 00:46:21;;;;;;;12.60;11.10;;;8.60;99.90;;;;;;5074816;28;20255;-68
2023/09/26 00:48:47;;;;;;;12.70;10.60;;;8.60;99.90;;;;;;5074711;28;20201;-68
2023/09/26 00:51:14;;;;;;;12.27;11.07;;;8.60;99.90;;;;;;5074527;28;20204;-68
2023/09/26 00:53:42;;;;;;;13.07;10.73;;;8.80;99.90;;;;;;5074471;28;20251;-68
2023/09/26 00:56:10;;;;;;;12.83;11.53;;;8.90;99.90;;;;;;5074241;28;20615;-68
2023/09/26 00:58:37;;;;;;;15.83;12.80;;;9.00;99.90;;;;;;5074428;28;20235;-68
2023/09/26 01:01:05;;;;;;;13.00;11.70;;;8.90;99.90;;;;;;5074481;28;20291;-68
2023/09/26 01:03:33;;;;;;;14.73;11.93;;;8.80;99.90;;;;;;5074332;28;20197;-68
2023/09/26 01:06:02;;;;;;;13.23;11.80;;;8.80;99.90;;;;;;5074253;28;20247;-69
2023/09/26 01:08:30;;;;;;;12.70;11.40;;;8.80;99.90;;;;;;5074092;28;20212;-68
2023/09/26 01:10:57;;;;;;;13.33;12.03;;;8.60;99.90;;;;;;5074268;28;20231;-68
2023/09/26 01:13:24;;;;;;;14.77;13.27;;;8.50;99.90;;;;;;5073986;28;20685;-68
2023/09/26 01:15:51;;;;;;;15.33;13.57;;;8.40;99.90;;;;;;5074138;28;20221;-68
2023/09/26 01:18:23;;;;;;;16.67;13.07;;;8.40;99.90;;;;;;5073936;28;20686;-68
2023/09/26 01:20:51;;;;;;;17.93;13.40;;;8.30;99.90;;;;;;5073985;28;20243;-69
2023/09/26 01:23:19;;;;;;;14.70;12.13;;;8.20;99.90;;;;;;5073819;28;20209;-69
2023/09/26 01:25:47;;;;;;;12.67;11.40;;;8.20;99.90;;;;;;5073957;28;20208;-69
2023/09/26 01:28:17;;;;;;;14.20;12.30;;;8.10;99.90;;;;;;5073676;28;20663;-69
2023/09/26 01:30:44;;;;;;;13.00;11.70;;;8.20;99.90;;;;;;5073617;28;20667;-69
2023/09/26 01:33:16;;;;;;;12.57;11.37;;;8.20;99.90;;;;;;5073605;28;20644;-69
2023/09/26 01:35:42;;;;;;;13.07;11.67;;;8.20;99.90;;;;;;5073469;28;20220;-69
2023/09/26 01:38:09;;;;;;;16.73;12.23;;;8.10;99.90;;;;;;5073398;28;20236;-69
2023/09/26 01:40:36;;;;;;;15.33;12.30;;;8.10;99.90;;;;;;5073415;28;20204;-69
2023/09/26 01:43:04;;;;;;;13.40;11.97;;;8.10;99.90;;;;;;5073350;28;20205;-68
2023/09/26 01:45:31;;;;;;;13.67;11.93;;;8.00;99.90;;;;;;5073461;28;20262;-70
2023/09/26 01:47:59;;;;;;;12.97;11.67;;;7.90;99.90;;;;;;5073335;28;20205;-69
2023/09/26 01:50:26;;;;;;;13.97;12.60;;;7.90;99.90;;;;;;5073239;28;20267;-69
2023/09/26 01:52:53;;;;;;;13.00;11.70;;;8.00;99.90;;;;;;5073388;28;20228;-69
2023/09/26 01:55:21;;;;;;;14.97;12.77;;;7.80;99.90;;;;;;5073184;28;20201;-69
2023/09/26 01:57:48;;;;;;;15.23;12.97;;;8.00;99.90;;;;;;5073247;28;20234;-69
2023/09/26 02:00:17;;;;;;;15.23;13.67;;;8.00;99.90;;;;;;5073089;28;20247;-69
2023/09/26 02:02:45;;;;;;;16.10;14.40;;;8.10;99.90;;;;;;5072986;28;20225;-69
2023/09/26 02:05:13;;;;;;;18.93;15.10;;;8.10;99.90;;;;;;5073244;28;20227;-69
2023/09/26 02:07:40;;;;;;;15.13;12.33;;;8.20;99.90;;;;;;5073302;28;20227;-69
2023/09/26 02:10:07;;;;;;;15.30;13.70;;;8.20;99.90;;;;;;5072719;28;20201;-69
2023/09/26 02:12:36;;;;;;;15.00;13.47;;;8.20;99.90;;;;;;5073070;28;20296;-68
2023/09/26 02:15:04;;;;;;;15.37;13.77;;;8.20;99.90;;;;;;5072984;28;20197;-69
2023/09/26 02:17:33;;;;;;;15.20;13.60;;;8.40;99.90;;;;;;5072819;28;20686;-69
2023/09/26 02:20:00;;;;;;;17.10;13.40;;;8.30;99.90;;;;;;5073146;28;20250;-69
2023/09/26 02:22:27;;;;;;;18.37;14.33;;;8.40;99.90;;;;;;5072968;28;20193;-70
2023/09/26 02:24:53;;;;;;;15.53;12.67;;;8.30;99.90;;;;;;5072931;28;20201;-69
2023/09/26 02:27:20;;;;;;;14.43;12.80;;;8.10;99.90;;;;;;5072854;28;20250;-69
2023/09/26 02:29:47;;;;;;;17.27;13.20;;;8.00;99.90;;;;;;5072758;28;20201;-69
2023/09/26 02:32:14;;;;;;;13.90;12.40;;;7.80;99.90;;;;;;5072748;28;20617;-69
2023/09/26 02:34:42;;;;;;;14.73;12.37;;;7.80;99.90;;;;;;5072912;28;20215;-68
2023/09/26 02:37:08;;;;;;;14.63;12.60;;;7.70;99.90;;;;;;5072622;28;20290;-69
2023/09/26 02:39:35;;;;;;;14.60;13.13;;;7.70;99.90;;;;;;5072810;28;20204;-68
2023/09/26 02:42:02;;;;;;;16.40;13.63;;;7.80;99.90;;;;;;5072576;28;20647;-68
2023/09/26 02:44:28;;;;;;;17.37;13.00;;;7.70;99.90;;;;;;5072650;28;20638;-68
2023/09/26 02:46:55;;;;;;;15.60;13.67;;;7.70;99.90;;;;;;5072542;28;20717;-69
2023/09/26 02:49:22;;;;;;;15.57;13.83;;;7.70;99.90;;;;;;5072801;28;20197;-69
2023/09/26 02:51:50;;;;;;;18.03;14.07;;;7.60;99.90;;;;;;5072693;28;20201;-69
2023/09/26 02:54:16;;;;;;;17.50;13.47;;;7.50;99.90;;;;;;5072638;28;20201;-69
2023/09/26 02:56:43;;;;;;;15.93;14.20;;;7.40;99.90;;;;;;5072477;28;20224;-69
2023/09/26 02:59:09;;;;;;;15.33;13.20;;;7.40;99.90;;;;;;5072454;28;20231;-69
2023/09/26 03:01:36;;;;;;;15.33;13.40;;;7.30;99.90;;;;;;5072626;28;20629;-70
2023/09/26 03:04:03;;;;;;;16.03;13.20;;;7.30;99.90;;;;;;5072413;28;20587;-69
2023/09/26 03:06:30;;;;;;;16.93;15.23;;;7.30;99.90;;;;;;5072494;28;20200;-69
2023/09/26 03:08:58;;;;;;;16.93;15.13;;;7.20;99.90;;;;;;5072453;28;20200;-69
2023/09/26 03:11:25;;;;;;;18.90;15.07;;;7.20;99.90;;;;;;5072316;28;20201;-69
2023/09/26 03:13:51;;;;;;;17.73;15.83;;;7.10;99.90;;;;;;5072372;28;20659;-69
2023/09/26 03:16:18;;;;;;;17.37;15.50;;;7.20;99.90;;;;;;5072402;28;20217;-69
2023/09/26 03:18:46;;;;;;;15.80;14.10;;;7.20;99.90;;;;;;5072299;28;20232;-69
2023/09/26 03:21:12;;;;;;;16.67;14.80;;;7.40;99.90;;;;;;5072398;28;20197;-69
2023/09/26 03:23:39;;;;;;;15.27;13.73;;;7.50;99.90;;;;;;5075512;28;20197;-68
2023/09/26 03:26:12;;;;;;;17.90;15.83;;;7.50;99.90;;;;;;5075985;28;20659;-69
2023/09/26 03:28:39;;;;;;;20.57;16.57;;;7.50;99.90;;;;;;5076218;28;20292;-69
2023/09/26 03:31:06;;;;;;;21.37;16.40;;;7.60;99.90;;;;;;5076036;28;20201;-69
2023/09/26 03:33:33;;;;;;;16.63;14.47;;;7.60;99.90;;;;;;5076012;28;20240;-68
2023/09/26 03:36:00;;;;;;;16.57;14.20;;;7.60;99.90;;;;;;5075675;28;20292;-68
2023/09/26 03:38:26;;;;;;;18.87;15.13;;;7.60;99.90;;;;;;5075739;28;20296;-68
2023/09/26 03:40:57;;;;;;;15.70;14.10;;;7.70;99.90;;;;;;5075948;28;20208;-68
2023/09/26 03:43:26;;;;;;;18.20;14.47;;;7.40;99.90;;;;;;5075878;28;20289;-68
2023/09/26 03:45:54;;;;;;;17.83;13.93;;;7.40;99.90;;;;;;5075722;28;20291;-68
2023/09/26 03:48:21;;;;;;;15.83;14.13;;;7.60;99.90;;;;;;5075717;28;20267;-70
2023/09/26 03:50:48;;;;;;;17.27;14.50;;;7.70;99.90;;;;;;5075621;28;20322;-68
2023/09/26 03:53:14;;;;;;;16.90;14.37;;;7.60;99.90;;;;;;5075538;28;20242;-68
2023/09/26 03:55:41;;;;;;;17.23;15.37;;;7.60;99.90;;;;;;5075749;28;20201;-69
2023/09/26 03:58:07;;;;;;;15.90;14.20;;;7.60;99.90;;;;;;5075288;28;20565;-70
2023/09/26 04:00:36;;;;;;;16.13;14.43;;;7.50;99.90;;;;;;5075570;28;20204;-68
2023/09/26 04:03:02;;;;;;;15.03;13.33;;;7.70;99.90;;;;;;5075452;28;20228;-68
2023/09/26 04:05:29;;;;;;;16.33;13.80;;;7.70;99.90;;;;;;5075241;28;20678;-68
2023/09/26 04:07:56;;;;;;;17.13;13.47;;;7.70;99.90;;;;;;5075515;28;20209;-68
2023/09/26 04:10:23;;;;;;;15.67;13.27;;;7.60;99.90;;;;;;5075385;28;20214;-68
2023/09/26 04:12:50;;;;;;;17.67;12.97;;;7.60;99.90;;;;;;5075190;28;20192;-68
2023/09/26 04:15:17;;;;;;;14.80;13.20;;;7.60;99.90;;;;;;5075036;28;20591;-68
2023/09/26 04:17:45;;;;;;;17.77;13.40;;;7.60;99.90;;;;;;5075043;28;20260;-68
2023/09/26 04:20:12;;;;;;;17.73;14.67;;;7.70;99.90;;;;;;5074939;28;20211;-68
2023/09/26 04:22:39;;;;;;;14.87;13.00;;;7.60;99.90;;;;;;5075160;28;20197;-69
2023/09/26 04:25:06;;;;;;;15.10;13.23;;;7.50;99.90;;;;;;5075157;28;20200;-68
2023/09/26 04:27:33;;;;;;;16.13;13.73;;;7.30;99.90;;;;;;5074988;28;20207;-69
2023/09/26 04:30:00;;;;;;;15.90;13.93;;;7.20;99.90;;;;;;5074888;28;20666;-68
2023/09/26 04:32:26;;;;;;;16.50;14.27;;;7.10;99.90;;;;;;5074733;28;20201;-68
2023/09/26 04:34:55;;;;;;;17.37;13.80;;;7.10;99.90;;;;;;5074505;28;20231;-68
2023/09/26 04:37:21;;;;;;;18.13;14.93;;;7.10;99.90;;;;;;5074561;28;20229;-68
2023/09/26 04:39:48;;;;;;;15.67;13.03;;;7.00;99.90;;;;;;5074895;28;20246;-69
2023/09/26 04:42:14;;;;;;;15.03;13.40;;;7.00;99.90;;;;;;5074788;28;20200;-68
2023/09/26 04:44:41;;;;;;;17.33;14.40;;;7.10;99.90;;;;;;5074650;28;20258;-68
2023/09/26 04:47:08;;;;;;;15.07;13.47;;;7.00;99.90;;;;;;5074513;28;20650;-68
2023/09/26 04:49:35;;;;;;;15.73;13.57;;;7.00;99.90;;;;;;5074478;28;20748;-68
2023/09/26 04:52:03;;;;;;;18.07;14.47;;;6.90;99.90;;;;;;5074672;28;20207;-68
2023/09/26 04:54:30;;;;;;;14.77;13.13;;;6.90;99.90;;;;;;5074487;28;20203;-68
2023/09/26 04:56:57;;;;;;;21.33;12.93;;;6.90;99.90;;;;;;5074301;28;20216;-68
2023/09/26 04:59:23;;;;;;;17.10;12.57;;;6.80;99.90;;;;;;5074333;28;20542;-68
2023/09/26 05:01:50;;;;;;;14.93;12.73;;;6.80;99.90;;;;;;5074260;28;20564;-69
2023/09/26 05:04:17;;;;;;;15.63;13.83;;;6.80;99.90;;;;;;5074449;28;20201;-69
2023/09/26 05:06:43;;;;;;;13.87;12.43;;;6.70;99.90;;;;;;5074245;28;20197;-68
2023/09/26 05:09:11;;;;;;;14.07;12.13;;;6.80;99.90;;;;;;5074224;28;20260;-68
2023/09/26 05:11:38;;;;;;;16.63;13.50;;;6.80;99.90;;;;;;5074174;28;20205;-69
2023/09/26 05:14:05;;;;;;;16.97;13.80;;;7.00;99.90;;;;;;5074100;28;20251;-68
2023/09/26 05:16:31;;;;;;;17.70;14.33;;;7.00;99.90;;;;;;5073884;28;20193;-69
2023/09/26 05:18:58;;;;;;;16.83;13.70;;;7.00;99.90;;;;;;5074102;28;20193;-68
2023/09/26 05:21:25;;;;;;;15.37;13.30;;;7.10;99.90;;;;;;5073757;28;20553;-68
2023/09/26 05:23:52;;;;;;;15.07;12.97;;;7.10;99.90;;;;;;5073790;28;20651;-69
2023/09/26 05:26:20;;;;;;;16.07;14.03;;;7.10;99.90;;;;;;5073808;28;20200;-68
2023/09/26 05:28:46;;;;;;;15.50;13.33;;;7.20;99.90;;;;;;5073568;28;20242;-68
2023/09/26 05:31:13;;;;;;;18.80;13.70;;;7.20;99.90;;;;;;5073644;28;20204;-68
2023/09/26 05:33:40;;;;;;;19.80;13.60;;;7.20;99.90;;;;;;5073456;28;20598;-68
2023/09/26 05:36:07;;;;;;;18.23;13.50;;;7.30;99.90;;;;;;5073360;28;20207;-69
2023/09/26 05:38:33;;;;;;;18.43;13.80;;;7.40;99.90;;;;;;5073671;28;20278;-68
2023/09/26 05:41:00;;;;;;;18.37;14.40;;;7.50;99.90;;;;;;5073496;28;20292;-68
2023/09/26 05:43:29;;;;;;;18.00;13.67;;;7.50;99.90;;;;;;5073438;28;20254;-68
2023/09/26 05:45:56;;;;;;;15.63;13.80;;;7.60;99.90;;;;;;5072707;28;20193;-68
2023/09/26 05:48:23;;;;;;;16.97;13.70;;;7.60;99.90;;;;;;5073281;28;20197;-68
2023/09/26 05:50:49;;;;;;;18.17;13.20;;;7.70;99.90;;;;;;5073100;28;20205;-68
2023/09/26 05:53:18;;;;;;;16.77;13.87;;;7.70;99.90;;;;;;5073055;28;20201;-69
2023/09/26 05:55:45;;;;;;;19.50;14.30;;;7.80;99.90;;;;;;5073103;28;20822;-69
2023/09/26 05:58:11;;;;;;;17.80;14.20;;;7.90;99.90;;;;;;5072945;28;20266;-69
2023/09/26 06:00:39;;;;;;;19.63;14.50;;;8.00;99.90;;;;;;5073329;28;20246;-68
2023/09/26 06:03:06;;;;;;;19.83;15.07;;;7.90;99.90;;;;;;5073307;28;20201;-69
2023/09/26 06:05:36;;;;;;;17.80;15.07;;;8.00;99.90;;;;;;5073255;28;20201;-69
2023/09/26 06:08:02;;;;;;;17.27;14.63;;;7.90;99.90;;;;;;5072945;28;20655;-69
2023/09/26 06:10:29;;;;;;;17.80;14.17;;;8.00;99.90;;;;;;5072911;28;20232;-69
2023/09/26 06:12:56;;;;;;;18.90;14.17;;;8.10;99.90;;;;;;5072997;28;20649;-69
2023/09/26 06:15:23;;;;;;;14.63;13.07;;;8.20;99.90;;;;;;5073104;28;20247;-69
2023/09/26 06:17:57;;;;;;;14.20;12.77;;;8.30;99.90;;;;;;5073045;28;20290;-69
2023/09/26 06:20:24;;;;;;;17.30;13.07;;;8.50;99.90;;;;;;5073023;28;20287;-69
2023/09/26 06:22:50;;;;;;;17.70;13.33;;;8.50;99.90;;;;;;5072872;28;20201;-69
2023/09/26 06:25:17;;;;;;;14.07;12.60;;;8.70;99.90;;;;;;5072897;28;20664;-69
2023/09/26 06:27:44;;;;;;;16.60;12.10;;;8.70;99.90;;;;;;5072971;28;20205;-69
2023/09/26 06:30:11;;;;;;;13.53;12.03;;;8.80;99.90;;;;;;5072928;28;20201;-69
2023/09/26 06:32:38;;;;;;;16.07;12.47;;;8.80;99.90;;;;;;5072760;28;20239;-69
2023/09/26 06:35:07;;;;;;;16.20;12.17;;;8.90;99.90;;;;;;5072813;28;20247;-69
2023/09/26 06:37:33;;;;;;;14.37;12.47;;;9.00;99.90;;;;;;5072343;28;20225;-69
2023/09/26 06:40:04;;;;;;;16.03;12.43;;;9.10;99.90;;;;;;5072884;28;20196;-69
2023/09/26 06:42:31;;;;;;;13.53;12.17;;;9.30;99.90;;;;;;5072526;28;20714;-69
2023/09/26 06:44:57;;;;;;;14.93;11.47;;;9.40;99.90;;;;;;5072675;28;20208;-69
2023/09/26 06:47:25;;;;;;;13.00;11.70;;;9.40;99.90;;;;;;5072632;28;20250;-69
2023/09/26 06:49:52;;;;;;;14.50;11.50;;;9.60;99.90;;;;;;5072489;28;20284;-70
2023/09/26 06:52:22;;;;;;;12.83;11.53;;;9.70;99.90;;;;;;5072410;28;20242;-68
2023/09/26 06:54:48;;;;;;;15.57;11.67;;;9.80;99.90;;;;;;5072462;28;20224;-69
2023/09/26 06:57:18;;;;;;;12.77;11.27;;;10.00;99.90;;;;;;5075267;28;20233;-68
2023/09/26 06:59:49;;;;;;;14.03;11.87;;;10.10;99.90;;;;;;5076582;28;20674;-70
2023/09/26 07:02:15;;;;;;;16.77;12.20;;;10.30;99.90;;;;;;5076562;28;20291;-69
2023/09/26 07:04:42;;;;;;;15.07;12.53;;;10.50;99.90;;;;;;5076377;28;20200;-69
2023/09/26 07:07:08;;;;;;;15.03;13.07;;;10.70;99.90;;;;;;5076542;28;20201;-69
2023/09/26 07:09:36;;;;;;;15.00;13.33;;;10.80;99.90;;;;;;5076507;28;20254;-69
2023/09/26 07:12:03;;;;;;;14.30;12.77;;;11.00;99.90;;;;;;5076398;28;20205;-69
2023/09/26 07:14:32;;;;;;;14.40;12.83;;;11.10;99.90;;;;;;5076258;28;20200;-69
2023/09/26 07:16:59;;;;;;;15.23;13.63;;;11.30;99.90;;;;;;5076008;28;20255;-69
2023/09/26 07:19:31;;;;;;;15.47;13.33;;;11.50;99.90;;;;;;5076043;28;20201;-69
2023/09/26 07:21:58;;;;;;;15.40;13.80;;;11.60;99.90;;;;;;5076144;28;20735;-69
2023/09/26 07:24:25;;;;;;;14.70;13.30;;;11.80;99.90;;;;;;5076097;28;20243;-69
2023/09/26 07:26:53;;;;;;;16.17;14.47;;;11.80;99.90;;;;;;5076105;28;20594;-69
2023/09/26 07:29:20;;;;;;;16.17;14.53;;;11.80;99.90;;;;;;5075905;28;20205;-69
2023/09/26 07:31:47;;;;;;;13.40;12.20;;;11.90;99.90;;;;;;5075710;28;20292;-69
2023/09/26 07:34:14;;;;;;;12.80;10.97;;;12.00;99.90;;;;;;5076036;28;20204;-69
2023/09/26 07:36:40;;;;;;;13.90;10.53;;;12.10;99.90;;;;;;5075727;28;20233;-69
2023/09/26 07:39:08;;;;;;;10.80;9.60;;;12.10;99.90;;;;;;5075813;28;20225;-69
2023/09/26 07:41:34;;;;;;;12.13;9.97;;;12.10;99.90;;;;;;5075706;28;20201;-69
2023/09/26 07:44:03;;;;;;;11.27;10.10;;;12.20;99.90;;;;;;5075679;28;20204;-68
2023/09/26 07:46:29;;;;;;;14.07;9.77;;;12.20;99.90;;;;;;5075493;28;20193;-69
2023/09/26 07:48:56;;;;;;;12.50;10.97;;;12.30;99.90;;;;;;5075817;28;20201;-69
2023/09/26 07:51:22;;;;;;;11.63;10.43;;;12.30;99.90;;;;;;5075764;28;20201;-69
2023/09/26 07:53:49;;;;;;;13.40;10.73;;;12.50;99.90;;;;;;5075495;28;20197;-69
2023/09/26 07:56:16;;;;;;;12.53;10.90;;;12.60;99.90;;;;;;5075490;28;20205;-69
2023/09/26 07:58:43;;;;;;;12.47;10.87;;;12.90;99.90;;;;;;5075322;28;20267;-69
2023/09/26 08:01:11;;;;;;;15.47;11.53;;;13.10;99.90;;;;;;5075363;28;20220;-69
2023/09/26 08:03:38;;;;;;;13.40;12.00;;;13.50;99.90;;;;;;5075398;28;20243;-69
2023/09/26 08:06:07;;;;;;;13.50;12.10;;;13.70;99.90;;;;;;5075396;28;20287;-69
2023/09/26 08:08:34;;;;;;;13.45;11.38;;;14.10;99.90;;;;;;5074527;28;20197;-69
2023/09/26 08:11:06;;;;;;;13.93;12.35;;;14.50;99.90;;;;;;5075250;28;20242;-69
2023/09/26 08:13:34;;;;;;;13.30;12.00;;;14.70;99.90;;;;;;5075157;28;20197;-69
2023/09/26 08:16:00;;;;;;;13.27;11.88;;;15.00;99.90;;;;;;5075384;28;20602;-69
2023/09/26 08:18:28;;;;;;;13.25;11.88;;;15.30;99.90;;;;;;5075240;28;20233;-69
2023/09/26 08:20:57;;;;;;;13.95;12.65;;;15.50;99.90;;;;;;5075194;28;20201;-69
2023/09/26 08:23:24;;;;;;;15.40;12.02;;;15.70;99.90;;;;;;5075004;28;20280;-69
2023/09/26 08:25:56;;;;;;;14.32;12.82;;;15.80;99.90;;;;;;5075034;28;20246;-69
2023/09/26 08:28:22;;;;;;;13.05;11.85;;;16.10;99.90;;;;;;5075290;28;20201;-69
2023/09/26 08:30:49;;;;;;;12.88;11.65;;;16.40;99.90;;;;;;5075114;28;20294;-69
2023/09/26 08:33:16;;;;;;;11.70;10.70;;;16.70;99.90;;;;;;5074955;28;20254;-69
2023/09/26 08:35:44;;;;;;;12.02;10.38;;;17.00;99.90;;;;;;5074656;28;20595;-69
2023/09/26 08:38:10;;;;;;;10.15;9.18;;;17.20;99.90;;;;;;5074457;28;20232;-69
2023/09/26 08:40:37;;;;;;;10.20;9.25;;;17.50;99.90;;;;;;5074473;28;20201;-70
2023/09/26 08:43:05;;;;;;;11.90;9.90;;;17.60;99.90;;;;;;5074809;28;20204;-69
2023/09/26 08:45:32;;;;;;;9.77;8.98;;;18.00;99.90;;;;;;5074654;28;20285;-69
2023/09/26 08:47:59;;;;;;;9.68;8.77;;;18.20;99.90;;;;;;5074598;28;20205;-70
2023/09/26 08:50:26;;;;;;;10.10;9.10;;;18.50;99.90;;;;;;5074689;28;20205;-69
2023/09/26 08:52:58;;;;;;;9.90;9.00;;;18.60;99.90;;;;;;5074433;28;20196;-70
2023/09/26 08:55:25;;;;;;;9.50;8.60;;;19.00;99.90;;;;;;5074669;28;20201;-69
2023/09/26 08:57:53;;;;;;;11.93;8.98;;;19.20;99.90;;;;;;5074435;28;20274;-69
2023/09/26 09:00:21;;;;;;;10.05;9.00;;;19.40;99.90;;;;;;5074428;28;20208;-69
2023/09/26 09:02:48;;;;;;;10.20;8.68;;;19.70;99.90;;;;;;5074317;28;20205;-69
2023/09/26 09:05:19;;;;;;;9.00;8.13;;;19.90;99.90;;;;;;5074017;28;20660;-70
2023/09/26 09:07:46;;;;;;;11.60;9.57;;;20.20;99.90;;;;;;5074091;28;20255;-69
2023/09/26 09:10:16;;;;;;;9.20;8.30;;;20.40;99.90;;;;;;5074083;28;20549;-69
2023/09/26 09:12:47;;;;;;;9.20;8.35;;;20.80;99.90;;;;;;5074092;28;20541;-70
2023/09/26 09:15:20;;;;;;;9.60;8.70;;;21.00;99.90;;;;;;5073848;28;20201;-69
2023/09/26 09:17:48;;;;;;;9.68;8.77;;;21.00;99.90;;;;;;5073843;28;20193;-69
2023/09/26 09:20:27;;;;;;;8.13;7.38;;;21.30;99.90;;;;;;5072508;28;20599;-69
2023/09/26 09:23:00;;;;;;;9.15;7.90;;;21.60;99.90;;;;;;5073873;28;20197;-70
2023/09/26 09:25:32;;;;;;;8.13;7.32;;;21.90;99.90;;;;;;5073772;28;20245;-69
2023/09/26 09:28:00;;;;;;;9.05;8.15;;;22.20;99.90;;;;;;5073563;28;20794;-69
2023/09/26 09:30:28;;;;;;;9.10;7.53;;;22.40;99.90;;;;;;5073577;28;20326;-70
2023/09/26 09:32:56;;;;;;;7.97;7.28;;;22.50;99.90;;;;;;5073800;28;20213;-70
2023/09/26 09:35:23;;;;;;;8.32;7.53;;;22.40;99.90;;;;;;5073702;28;20201;-70
2023/09/26 09:37:50;;;;;;;8.23;7.20;;;22.70;99.90;;;;;;5073432;28;20255;-69
2023/09/26 09:40:17;;;;;;;10.32;7.57;;;23.00;99.90;;;;;;5073421;28;20196;-70
2023/09/26 09:42:45;;;;;;;8.77;7.70;;;23.30;99.90;;;;;;5073370;28;20197;-70
2023/09/26 09:45:11;;;;;;;9.38;8.40;;;23.00;99.90;;;;;;5073358;28;20346;-70
2023/09/26 09:47:42;;;;;;;7.88;7.07;;;23.30;99.90;;;;;;5073257;28;20671;-69
2023/09/26 09:50:09;;;;;;;9.02;8.05;;;23.60;99.90;;;;;;5073352;28;20701;-70
2023/09/26 09:52:40;;;;;;;11.07;9.63;;;23.80;99.90;;;;;;5073404;28;20258;-70
2023/09/26 09:55:09;;;;;;;10.02;8.43;;;23.30;99.90;;;;;;5073330;28;20197;-70
2023/09/26 09:57:42;;;;;;;10.02;8.05;;;23.80;99.90;;;;;;5073146;28;20208;-70
2023/09/26 10:00:11;;;;;;;7.63;6.93;;;24.30;99.90;;;;;;5073360;28;20282;-70
2023/09/26 10:02:39;;;;;;;8.40;7.57;;;24.80;99.90;;;;;;5073238;28;20193;-70
2023/09/26 10:05:12;;;;;;;9.00;7.60;;;25.30;99.90;;;;;;5073200;28;20201;-70
2023/09/26 10:07:40;;;;;;;8.82;8.02;;;25.20;99.90;;;;;;5072965;28;20667;-70
2023/09/26 10:10:09;;;;;;;8.93;6.90;;;25.40;99.60;;;;;;5072941;28;20207;-70
2023/09/26 10:12:37;;;;;;;9.35;8.48;;;26.10;99.70;;;;;;5073169;28;20243;-70
2023/09/26 10:15:09;;;;;;;9.77;8.90;;;26.40;98.00;;;;;;5073086;28;20250;-70
2023/09/26 10:17:37;;;;;;;8.90;8.00;;;25.90;97.50;;;;;;5073045;28;20235;-70
2023/09/26 10:20:05;;;;;;;8.77;8.00;;;26.00;97.00;;;;;;5072878;28;20220;-70
2023/09/26 10:22:34;;;;;;;8.60;7.80;;;25.80;96.80;;;;;;5072779;28;20235;-70
2023/09/26 10:25:02;;;;;;;7.97;6.72;;;25.50;96.60;;;;;;5072996;28;20192;-70
2023/09/26 10:27:39;;;;;;;7.60;6.65;;;26.10;96.80;;;;;;5072841;28;20196;-70
2023/09/26 10:30:10;;;;;;;6.63;6.07;;;27.00;95.60;;;;;;5072977;28;20200;-70
2023/09/26 10:32:40;;;;;;;6.22;5.63;;;27.40;94.70;;;;;;5072444;28;20207;-70
2023/09/26 10:35:25;;;;;;;6.82;6.05;;;28.30;93.40;;;;;;5072627;28;20196;-70
2023/09/26 10:38:00;;;;;;;9.05;6.18;;;29.00;91.70;;;;;;5072436;28;20228;-70
2023/09/26 10:40:27;;;;;;;6.72;5.93;;;29.10;90.30;;;;;;5072660;28;20242;-70
2023/09/26 10:42:54;;;;;;;8.25;6.30;;;29.20;88.90;;;;;;5072555;28;20742;-70
2023/09/26 10:45:20;;;;;;;6.47;5.80;;;29.80;86.30;;;;;;5072550;28;20257;-70
2023/09/26 10:47:48;;;;;;;6.28;5.30;;;30.00;84.90;;;;;;5072706;28;20245;-70
2023/09/26 10:50:15;;;;;;;6.60;6.00;;;30.60;81.90;;;;;;5072684;28;20205;-70
2023/09/26 10:52:46;;;;;;;6.47;5.00;;;30.40;80.10;;;;;;5072499;28;20192;-70
2023/09/26 10:55:15;;;;;;;8.27;5.60;;;31.20;78.70;;;;;;5072560;28;20196;-70
2023/09/26 10:57:43;;;;;;;6.40;4.80;;;31.50;76.90;;;;;;5072382;28;20199;-70
2023/09/26 11:00:12;;;;;;;6.55;5.18;;;32.00;74.70;;;;;;5072336;28;20282;-70
2023/09/26 11:02:39;;;;;;;6.57;5.82;;;32.20;71.10;;;;;;5072617;28;20200;-70
2023/09/26 11:05:09;;;;;;;6.10;5.50;;;32.50;69.60;;;;;;5072405;28;20204;-70
2023/09/26 11:07:36;;;;;;;5.43;4.93;;;32.50;68.20;;;;;;5072613;28;20200;-70
2023/09/26 11:10:04;;;;;;;6.18;5.60;;;32.60;66.70;;;;;;5072483;28;20192;-70
2023/09/26 11:12:31;;;;;;;5.85;5.35;;;31.90;64.80;;;;;;5072357;28;20284;-70
2023/09/26 11:14:59;;;;;;;7.10;5.60;;;31.70;64.30;;;;;;5072378;28;20204;-70
2023/09/26 11:17:27;;;;;;;5.82;5.32;;;32.00;64.50;;;;;;5072554;28;20197;-70
2023/09/26 11:19:56;;;;;;;5.93;5.32;;;32.40;63.40;;;;;;5072179;28;20228;-70
2023/09/26 11:22:24;;;;;;;5.68;4.85;;;32.20;62.40;;;;;;5072285;28;20246;-70
2023/09/26 11:25:04;;;;;;;5.90;5.30;;;32.40;64.00;;;;;;5072140;28;20197;-70
2023/09/26 11:27:31;;;;;;;8.35;4.88;;;33.00;62.70;;;;;;5072394;28;20201;-70
2023/09/26 11:30:00;;;;;;;5.85;4.60;;;33.00;61.10;;;;;;5072249;28;20266;-70
2023/09/26 11:32:27;;;;;;;6.38;4.78;;;33.60;59.90;;;;;;5072260;28;20246;-70
2023/09/26 11:34:53;;;;;;;5.38;4.88;;;34.30;58.30;;;;;;5071925;28;20199;-70
2023/09/26 11:37:20;;;;;;;8.15;5.00;;;33.80;56.90;;;;;;5071809;28;20274;-70
2023/09/26 11:39:54;;;;;;;6.07;5.47;;;33.60;58.20;;;;;;5071898;28;20281;-70
2023/09/26 11:42:21;;;;;;;5.30;4.43;;;34.30;56.80;;;;;;5072218;28;20203;-70
2023/09/26 11:44:54;;;;;;;5.70;5.15;;;34.60;56.60;;;;;;5075528;28;20597;-70
2023/09/26 11:47:22;;;;;;;5.18;4.13;;;34.00;55.10;;;;;;5075758;28;20193;-70
2023/09/26 11:49:49;;;;;;;5.45;4.60;;;33.20;55.50;;;;;;5075549;28;20220;-70
2023/09/26 11:52:16;;;;;;;5.85;5.35;;;32.00;56.30;;;;;;5075546;28;20206;-70
2023/09/26 11:54:44;;;;;;;5.47;5.00;;;31.10;59.00;;;;;;5075693;28;20221;-70
2023/09/26 11:57:13;;;;;;;6.38;5.40;;;31.80;58.10;;;;;;5075482;28;20201;-70
2023/09/26 11:59:40;;;;;;;4.82;4.43;;;30.10;60.40;;;;;;5075562;28;20192;-70
2023/09/26 12:02:07;;;;;;;7.63;5.22;;;31.20;59.70;;;;;;5075461;28;20200;-70
2023/09/26 12:04:34;;;;;;;5.88;4.95;;;32.90;58.00;;;;;;5075354;28;20204;-70
2023/09/26 12:07:01;;;;;;;5.68;5.13;;;34.20;56.60;;;;;;5075257;28;20246;-70
2023/09/26 12:09:29;;;;;;;6.38;5.28;;;34.10;54.90;;;;;;5075435;28;20263;-70
2023/09/26 12:11:56;;;;;;;5.40;5.00;;;34.10;55.80;;;;;;5075405;28;20232;-70
2023/09/26 12:14:24;;;;;;;6.22;4.22;;;34.80;53.80;;;;;;5075305;28;20196;-70
2023/09/26 12:16:51;;;;;;;7.72;4.78;;;35.40;52.90;;;;;;5075211;28;20197;-70
2023/09/26 12:19:19;;;;;;;5.78;4.10;;;35.40;52.20;;;;;;5074989;28;20193;-70
2023/09/26 12:21:46;;;;;;;5.05;4.30;;;35.30;51.80;;;;;;5075376;28;20287;-70
2023/09/26 12:24:13;;;;;;;5.55;4.65;;;35.10;52.20;;;;;;5075091;28;20204;-70
2023/09/26 12:26:40;;;;;;;4.85;4.45;;;34.10;52.00;;;;;;5075020;28;20196;-70
2023/09/26 12:29:06;;;;;;;4.55;4.15;;;35.30;52.40;;;;;;5074805;28;20235;-70
2023/09/26 12:31:34;;;;;;;5.93;4.70;;;35.40;50.80;;;;;;5074833;28;20203;-70
2023/09/26 12:34:02;;;;;;;5.10;4.45;;;35.30;51.50;;;;;;5074587;28;20598;-70
2023/09/26 12:36:28;;;;;;;4.50;4.05;;;36.10;51.00;;;;;;5074829;28;20228;-70
2023/09/26 12:38:55;;;;;;;5.97;4.85;;;35.90;50.20;;;;;;5074883;28;20201;-70
2023/09/26 12:41:24;;;;;;;4.38;3.97;;;36.90;49.40;;;;;;5074659;28;20287;-69